Time;durP1;ratioP1;P1;durP2;ratioP2;P2;SDS_P1;SDS_P2;PMS_P1;PMS_P2;Temp;Humidity;BMP_temperature;BMP_pressure;BME280_temperature;BME280_humidity;BME280_pressure;Samples;Min_cycle;Max_cycle;Signal;HPM_P1;HPM_P2
2023/03/14 00:01:53;;;;;;;41.93;2.10;;;;;;;24.34;49.25;97353.13;7309056;19;128927;-43
2023/03/14 00:04:19;;;;;;;73.00;3.80;;;;;;;24.20;50.33;97351.56;7309456;19;128990;-39
2023/03/14 00:06:46;;;;;;;52.23;2.80;;;;;;;24.15;50.16;97333.00;7308915;19;129427;-42
2023/03/14 00:09:12;;;;;;;37.25;1.85;;;;;;;23.91;50.45;97304.84;7308828;19;129798;-40
2023/03/14 00:11:37;;;;;;;27.53;1.50;;;;;;;23.91;50.61;97307.47;7307030;19;129336;-41
2023/03/14 00:14:03;;;;;;;59.80;3.13;;;;;;;23.71;51.35;97293.63;7311675;19;128851;-39
2023/03/14 00:16:28;;;;;;;17.30;1.03;;;;;;;23.69;51.59;97298.28;7315871;19;130671;-42
2023/03/14 00:18:54;;;;;;;50.28;2.78;;;;;;;23.59;51.78;97295.28;7314527;19;130227;-41
2023/03/14 00:21:19;;;;;;;43.03;2.40;;;;;;;23.45;51.59;97287.69;7315679;19;129955;-43
2023/03/14 00:23:44;;;;;;;47.47;2.43;;;;;;;23.41;52.05;97282.06;7316439;19;129529;-41
2023/03/14 00:26:15;;;;;;;35.10;1.80;;;;;;;23.29;52.92;97282.91;7315685;19;129032;-41
2023/03/14 00:28:42;;;;;;;38.90;2.17;;;;;;;23.10;53.22;97258.31;7316083;19;129288;-42
2023/03/14 00:31:08;;;;;;;64.20;3.33;;;;;;;23.07;53.02;97292.81;7314128;19;129387;-42
2023/03/14 00:33:34;;;;;;;50.88;2.53;;;;;;;22.99;53.37;97293.03;7314459;19;129103;-41
2023/03/14 00:36:04;;;;;;;35.77;1.90;;;;;;;22.91;53.46;97286.16;7315612;19;129624;-41
2023/03/14 00:38:30;;;;;;;45.10;2.30;;;;;;;22.93;53.58;97283.34;7314473;19;130102;-41
2023/03/14 00:40:56;;;;;;;36.28;1.90;;;;;;;22.95;53.22;97286.56;7314356;19;128991;-39
2023/03/14 00:43:22;;;;;;;52.13;2.80;;;;;;;23.00;53.44;97294.63;7313576;19;130713;-43
2023/03/14 00:45:49;;;;;;;41.33;2.17;;;;;;;23.14;53.07;97285.72;7314105;19;129507;-39
2023/03/14 00:48:14;;;;;;;36.15;1.92;;;;;;;23.28;52.90;97300.44;7315403;19;129145;-39
2023/03/14 00:50:39;;;;;;;40.73;2.03;;;;;;;23.41;52.39;97303.03;7314013;19;129242;-42
2023/03/14 00:53:05;;;;;;;44.60;2.17;;;;;;;23.59;52.10;97300.53;7314492;19;129096;-40
2023/03/14 00:55:30;;;;;;;50.47;2.77;;;;;;;23.57;51.93;97284.19;7314817;19;129455;-41
2023/03/14 00:57:56;;;;;;;19.63;1.20;;;;;;;23.86;51.28;97317.81;7314778;19;129664;-41
2023/03/14 01:00:21;;;;;;;62.67;3.30;;;;;;;23.97;50.98;97314.50;7314424;19;129371;-41
2023/03/14 01:02:46;;;;;;;45.53;2.30;;;;;;;23.98;50.71;97315.34;7314188;19;129585;-41
2023/03/14 01:05:12;;;;;;;65.97;3.65;;;;;;;23.95;50.66;97313.91;7314511;19;129743;-42
2023/03/14 01:07:37;;;;;;;45.93;2.47;;;;;;;23.89;50.97;97306.88;7314326;19;129733;-43
2023/03/14 01:10:04;;;;;;;52.87;2.57;;;;;;;23.86;51.31;97311.72;7314622;19;129036;-42
2023/03/14 01:12:29;;;;;;;44.80;2.60;;;;;;;23.79;51.01;97314.38;7312223;19;129586;-41
2023/03/14 01:14:55;;;;;;;47.00;2.60;;;;;;;23.71;51.85;97319.06;7315850;19;129367;-42
2023/03/14 01:17:20;;;;;;;39.67;2.07;;;;;;;23.63;51.96;97322.75;7313072;19;129330;-42
2023/03/14 01:19:46;;;;;;;62.63;3.30;;;;;;;23.41;52.03;97297.78;7313169;19;128986;-43
2023/03/14 01:22:12;;;;;;;29.27;1.50;;;;;;;23.42;52.24;97299.38;7314220;19;129186;-41
2023/03/14 01:24:37;;;;;;;31.70;1.63;;;;;;;23.35;52.15;97290.75;7313919;19;129404;-43
2023/03/14 01:27:02;;;;;;;61.90;3.55;;;;;;;23.24;52.41;97301.81;7312894;19;129372;-42
2023/03/14 01:29:28;;;;;;;60.30;3.13;;;;;;;23.15;52.71;97292.59;7314085;19;128842;-40
2023/03/14 01:31:53;;;;;;;61.50;3.33;;;;;;;22.97;52.86;97282.72;7313145;19;130733;-42
2023/03/14 01:34:18;;;;;;;45.93;2.37;;;;;;;22.98;53.52;97294.03;7314264;19;130100;-41
2023/03/14 01:36:44;;;;;;;16.10;0.97;;;;;;;22.92;53.96;97297.47;7312379;19;129664;-42
2023/03/14 01:39:09;;;;;;;55.53;2.83;;;;;;;22.87;54.20;97295.44;7313831;19;129530;-43
2023/03/14 01:41:35;;;;;;;42.83;2.30;;;;;;;22.89;54.07;97303.91;7312739;19;129834;-41
2023/03/14 01:44:00;;;;;;;38.13;2.03;;;;;;;22.94;53.62;97303.31;7313875;19;129048;-40
2023/03/14 01:46:33;;;;;;;36.80;2.10;;;;;;;23.05;53.47;97308.75;7312424;19;129720;-41
2023/03/14 01:49:29;;;;;;;55.17;2.80;;;;;;;23.24;53.42;97304.44;7313518;19;128954;-41
2023/03/14 01:51:58;;;;;;;69.95;3.55;;;;;;;23.38;52.62;97300.00;7311926;19;129172;-40
2023/03/14 01:54:29;;;;;;;55.45;2.95;;;;;;;23.54;52.24;97291.69;7315061;19;129622;-41
2023/03/14 01:57:29;;;;;;;77.53;4.25;;;;;;;23.72;51.68;97290.00;7311336;19;129789;-39
2023/03/14 02:00:05;;;;;;;33.67;1.80;;;;;;;23.86;51.05;97291.56;7313044;19;129474;-40
2023/03/14 02:02:31;;;;;;;66.93;3.60;;;;;;;23.96;50.81;97306.84;7311008;19;129418;-43
2023/03/14 02:04:58;;;;;;;41.67;2.30;;;;;;;23.98;50.89;97316.13;7313909;19;129983;-41
2023/03/14 02:07:46;;;;;;;61.10;3.20;;;;;;;23.95;50.98;97306.03;7311252;19;129619;-41
2023/03/14 02:10:11;;;;;;;54.67;2.83;;;;;;;23.84;51.50;97285.69;7312541;19;129543;-40
2023/03/14 02:12:38;;;;;;;45.23;2.33;;;;;;;23.87;51.08;97293.16;7310241;19;129497;-40
2023/03/14 02:15:04;;;;;;;27.73;1.58;;;;;;;23.79;50.90;97289.97;7313423;19;129229;-41
2023/03/14 02:17:30;;;;;;;40.63;2.13;;;;;;;23.71;51.30;97298.88;7310955;19;129584;-41
2023/03/14 02:20:00;;;;;;;32.93;1.73;;;;;;;23.58;51.26;97298.94;7312269;19;129385;-43
2023/03/14 02:22:25;;;;;;;64.00;3.40;;;;;;;23.50;52.03;97291.31;7311319;19;129231;-39
2023/03/14 02:25:03;;;;;;;35.93;2.13;;;;;;;23.38;52.61;97286.91;7312603;19;129146;-42
2023/03/14 02:27:28;;;;;;;59.08;3.25;;;;;;;23.31;52.88;97296.59;7310759;19;129719;-41
2023/03/14 02:30:04;;;;;;;40.93;2.30;;;;;;;23.14;52.57;97273.44;7312812;19;129597;-41
2023/03/14 02:32:32;;;;;;;39.30;2.28;;;;;;;23.12;53.27;97283.31;7311795;19;129022;-42
2023/03/14 02:35:00;;;;;;;57.55;2.97;;;;;;;23.05;53.07;97289.59;7312612;19;129343;-42
2023/03/14 02:37:35;;;;;;;25.70;1.63;;;;;;;22.98;53.78;97280.91;7309436;19;129223;-41
2023/03/14 02:40:01;;;;;;;47.45;2.53;;;;;;;22.88;53.46;97278.72;7311516;19;129122;-42
2023/03/14 02:42:27;;;;;;;41.93;2.33;;;;;;;22.89;53.65;97287.41;7311504;19;129330;-40
2023/03/14 02:44:59;;;;;;;48.95;2.55;;;;;;;22.93;54.21;97283.34;7312419;19;129587;-40
2023/03/14 02:47:28;;;;;;;39.15;2.20;;;;;;;23.02;53.43;97282.13;7308354;19;130521;-41
2023/03/14 02:50:01;;;;;;;40.75;2.25;;;;;;;23.13;52.99;97282.31;7313139;19;129143;-42
2023/03/14 02:52:27;;;;;;;50.70;2.88;;;;;;;23.26;52.89;97278.84;7309211;19;129700;-42
2023/03/14 02:54:52;;;;;;;42.90;2.23;;;;;;;23.40;52.49;97275.22;7312738;19;130069;-42
2023/03/14 02:57:17;;;;;;;63.83;3.42;;;;;;;23.56;52.52;97290.47;7310336;19;129658;-41
2023/03/14 02:59:42;;;;;;;50.47;2.67;;;;;;;23.68;52.02;97288.81;7311674;19;129276;-41
2023/03/14 03:02:08;;;;;;;25.53;1.43;;;;;;;23.74;51.54;97266.16;7311027;19;128991;-41
2023/03/14 03:04:33;;;;;;;49.28;2.55;;;;;;;23.96;51.14;97285.84;7310650;19;129141;-41
2023/03/14 03:06:58;;;;;;;69.23;3.83;;;;;;;24.00;50.91;97287.84;7311575;19;130895;-42
2023/03/14 03:09:24;;;;;;;47.00;2.55;;;;;;;23.99;51.06;97288.88;7311136;19;128942;-42
2023/03/14 03:11:49;;;;;;;50.10;2.83;;;;;;;23.99;50.66;97281.00;7310182;19;128842;-41
2023/03/14 03:14:14;;;;;;;57.67;3.03;;;;;;;23.89;51.46;97275.38;7308361;19;129522;-42
2023/03/14 03:16:40;;;;;;;35.10;1.93;;;;;;;23.81;51.03;97273.00;7311630;19;130011;-40
2023/03/14 03:19:05;;;;;;;29.35;1.60;;;;;;;23.74;51.50;97264.34;7311863;19;129196;-40
2023/03/14 03:21:30;;;;;;;23.70;1.40;;;;;;;23.63;51.52;97261.59;7310740;19;129176;-41
2023/03/14 03:23:56;;;;;;;80.50;4.40;;;;;;;23.55;52.47;97270.47;7310704;19;130018;-40
2023/03/14 03:26:21;;;;;;;41.77;2.27;;;;;;;23.45;52.17;97259.66;7311629;19;129321;-42
2023/03/14 03:28:46;;;;;;;37.35;2.03;;;;;;;23.36;52.14;97258.28;7311366;19;129271;-42
2023/03/14 03:31:12;;;;;;;27.20;1.50;;;;;;;23.29;52.86;97262.72;7311288;19;128977;-41
2023/03/14 03:33:38;;;;;;;47.07;2.30;;;;;;;23.17;53.17;97254.66;7309775;19;129555;-42
2023/03/14 03:36:03;;;;;;;35.73;1.87;;;;;;;23.11;53.05;97250.25;7308745;19;129359;-43
2023/03/14 03:38:29;;;;;;;39.57;2.13;;;;;;;22.89;53.47;97240.25;7308441;19;129159;-42
2023/03/14 03:40:54;;;;;;;52.43;2.83;;;;;;;22.94;53.58;97254.31;7310629;19;128976;-42
2023/03/14 03:43:19;;;;;;;51.87;2.80;;;;;;;22.92;53.98;97266.03;7308720;19;129539;-43
2023/03/14 03:45:45;;;;;;;38.93;2.20;;;;;;;22.89;53.90;97271.69;7309296;19;130113;-42
2023/03/14 03:48:10;;;;;;;43.93;2.43;;;;;;;22.84;53.93;97261.00;7309199;19;129296;-41
2023/03/14 03:50:35;;;;;;;39.25;1.98;;;;;;;23.04;53.33;97269.59;7310459;19;128897;-42
2023/03/14 03:53:01;;;;;;;42.03;2.33;;;;;;;23.19;53.22;97272.81;7308411;19;129521;-43
2023/03/14 03:55:27;;;;;;;44.30;2.35;;;;;;;23.30;52.92;97269.59;7308917;19;131326;-41
2023/03/14 03:57:53;;;;;;;34.28;1.95;;;;;;;23.45;52.22;97259.66;7309916;19;128879;-41
2023/03/14 04:00:18;;;;;;;74.97;3.90;;;;;;;23.53;52.21;97253.34;7309679;19;129559;-43
2023/03/14 04:02:44;;;;;;;36.80;1.93;;;;;;;23.73;51.75;97265.38;7307452;19;129475;-42
2023/03/14 04:05:09;;;;;;;42.30;2.30;;;;;;;23.82;51.72;97256.25;7307393;19;129768;-41
2023/03/14 04:07:35;;;;;;;58.93;3.07;;;;;;;23.91;50.99;97257.63;7309212;19;129582;-43
2023/03/14 04:10:00;;;;;;;59.93;3.03;;;;;;;23.98;51.23;97258.38;7309760;19;129288;-41
2023/03/14 04:12:25;;;;;;;56.63;3.10;;;;;;;23.97;50.60;97262.00;7307964;19;130145;-40
2023/03/14 04:14:51;;;;;;;40.87;2.23;;;;;;;23.88;50.63;97268.50;7310472;19;129673;-41
2023/03/14 04:17:16;;;;;;;44.13;2.37;;;;;;;23.85;51.08;97270.78;7309022;19;129862;-42
2023/03/14 04:19:42;;;;;;;55.07;2.80;;;;;;;23.79;51.85;97267.16;7309714;19;130173;-39
2023/03/14 04:22:08;;;;;;;49.30;2.58;;;;;;;23.68;51.44;97267.00;7307693;19;129294;-42
2023/03/14 04:24:33;;;;;;;42.53;2.25;;;;;;;23.59;52.08;97273.50;7306830;19;129731;-42
2023/03/14 04:26:58;;;;;;;45.10;2.35;;;;;;;23.50;52.14;97264.28;7308188;19;130130;-42
2023/03/14 04:29:24;;;;;;;44.63;2.47;;;;;;;23.38;52.29;97266.75;7308926;19;129033;-40
2023/03/14 04:31:49;;;;;;;46.20;2.60;;;;;;;23.32;52.33;97264.13;7305683;19;130470;-42
2023/03/14 04:34:14;;;;;;;41.47;2.27;;;;;;;23.09;53.34;97240.97;7307826;19;130421;-41
2023/03/14 04:36:40;;;;;;;86.47;4.70;;;;;;;23.11;53.55;97249.44;7308217;19;129275;-40
2023/03/14 04:39:05;;;;;;;18.77;1.13;;;;;;;23.07;53.11;97245.63;7308595;19;129994;-42
2023/03/14 04:41:30;;;;;;;28.73;1.53;;;;;;;22.93;53.42;97230.94;7308066;19;129035;-41
2023/03/14 04:43:56;;;;;;;42.63;2.43;;;;;;;22.91;53.43;97244.25;7309495;19;130105;-43
2023/03/14 04:46:21;;;;;;;59.13;3.00;;;;;;;22.92;54.30;97239.81;7307302;19;129951;-42
2023/03/14 04:48:46;;;;;;;33.65;1.80;;;;;;;22.93;53.87;97236.19;7308351;19;128971;-41
2023/03/14 04:51:12;;;;;;;63.30;3.30;;;;;;;23.05;53.51;97229.31;7306018;19;129470;-41
2023/03/14 04:53:37;;;;;;;56.55;3.20;;;;;;;23.16;53.18;97231.28;7302531;19;130390;-42
2023/03/14 04:56:03;;;;;;;69.70;3.57;;;;;;;23.29;52.97;97210.28;7306055;19;129050;-40
2023/03/14 04:58:28;;;;;;;50.17;2.90;;;;;;;23.46;52.91;97216.69;7309809;19;129808;-40
2023/03/14 05:00:53;;;;;;;30.53;1.67;;;;;;;23.60;52.01;97231.31;7314382;19;129239;-41
2023/03/14 05:03:19;;;;;;;65.68;3.45;;;;;;;23.64;52.04;97227.28;7312447;19;129485;-41
2023/03/14 05:05:45;;;;;;;234.23;12.60;;;;;;;23.58;52.20;97199.28;7307855;19;129468;-38
2023/03/14 05:08:11;;;;;;;206.27;11.45;;;;;;;23.64;52.26;97193.16;7277020;19;129707;-40
2023/03/14 05:10:37;;;;;;;187.10;10.60;;;;;;;23.82;51.44;97209.00;7271949;19;130146;-38
2023/03/14 05:13:03;;;;;;;234.03;12.83;;;;;;;23.87;51.95;97203.13;7272533;19;130214;-40
2023/03/14 05:15:28;;;;;;;238.03;13.20;;;;;;;23.95;51.55;97193.16;7273997;19;129669;-39
2023/03/14 05:17:54;;;;;;;208.37;11.60;;;;;;;24.04;50.75;97202.44;7277766;19;130358;-38
2023/03/14 05:20:20;;;;;;;254.60;13.88;;;;;;;24.02;50.86;97208.91;7274779;19;130361;-40
2023/03/14 05:22:46;;;;;;;239.00;13.23;;;;;;;23.99;50.43;97215.41;7273597;19;129719;-39
2023/03/14 05:25:11;;;;;;;273.67;16.00;;;;;;;23.97;51.36;97209.50;7276024;19;130082;-38
2023/03/14 05:27:37;;;;;;;205.37;11.47;;;;;;;23.89;50.81;97204.53;7276754;19;129664;-40
2023/03/14 05:30:04;;;;;;;218.43;11.87;;;;;;;23.81;51.63;97206.59;7277425;19;131179;-39
2023/03/14 05:32:30;;;;;;;219.30;12.10;;;;;;;23.74;51.60;97213.69;7274902;19;132536;-39
2023/03/14 05:34:58;;;;;;;208.50;11.87;;;;;;;23.67;51.67;97213.72;7271847;19;130413;-42
2023/03/14 05:37:24;;;;;;;238.40;13.52;;;;;;;23.57;52.09;97208.13;7271642;19;131655;-39
2023/03/14 05:39:50;;;;;;;227.63;12.65;;;;;;;23.48;52.21;97209.41;7270639;19;130070;-40
2023/03/14 05:42:15;;;;;;;243.90;13.40;;;;;;;23.35;52.82;97192.94;7270234;19;132505;-38
2023/03/14 05:44:41;;;;;;;188.52;10.30;;;;;;;23.32;52.87;97204.63;7273290;19;131236;-37
2023/03/14 05:47:06;;;;;;;204.07;11.53;;;;;;;23.21;53.23;97202.63;7273150;19;130149;-41
2023/03/14 05:49:31;;;;;;;218.10;12.07;;;;;;;23.12;52.86;97188.94;7275729;19;130379;-39
2023/03/14 05:51:57;;;;;;;214.70;11.73;;;;;;;23.07;53.75;97195.84;7275388;19;132423;-40
2023/03/14 05:54:22;;;;;;;238.20;13.35;;;;;;;23.03;53.64;97194.63;7272051;19;130960;-41
2023/03/14 05:56:47;;;;;;;212.93;11.67;;;;;;;23.03;53.33;97189.38;7273254;19;130175;-41
2023/03/14 05:59:14;;;;;;;216.23;11.93;;;;;;;23.07;53.21;97186.13;7273987;19;129821;-39
2023/03/14 06:01:39;;;;;;;;;;;;;;;23.12;53.44;97177.69;7274988;19;130658;-41
2023/03/14 06:04:05;;;;;;;212.60;11.80;;;;;;;23.25;53.14;97182.88;7273700;19;129972;-39
2023/03/14 06:06:30;;;;;;;267.47;14.47;;;;;;;23.35;52.92;97180.63;7271425;19;131096;-39
2023/03/14 06:08:56;;;;;;;271.50;16.20;;;;;;;23.44;52.57;97189.03;7268742;19;130494;-40
2023/03/14 06:11:21;;;;;;;280.45;15.20;;;;;;;23.45;52.72;97167.88;7270596;19;131205;-39
2023/03/14 06:13:46;;;;;;;190.10;10.50;;;;;;;23.67;51.77;97198.00;7273593;19;130406;-40
2023/03/14 06:16:13;;;;;;;176.93;9.93;;;;;;;23.79;51.39;97201.56;7271395;19;130465;-39
2023/03/14 06:18:38;;;;;;;257.23;13.90;;;;;;;23.83;51.44;97197.47;7271584;19;130519;-39
2023/03/14 06:21:04;;;;;;;189.93;10.27;;;;;;;23.94;51.41;97211.75;7272874;19;130605;-40
2023/03/14 06:23:31;;;;;;;224.30;12.20;;;;;;;24.04;50.93;97212.94;7270603;19;130809;-38
2023/03/14 06:25:57;;;;;;;32.22;1.73;;;;;;;24.12;51.15;97215.28;7280114;19;129607;-41
2023/03/14 06:28:22;;;;;;;223.37;12.27;;;;;;;24.16;50.60;97219.09;7278454;19;129571;-39
2023/03/14 06:30:47;;;;;;;67.83;3.80;;;;;;;24.11;50.72;97226.78;7279133;19;130952;-41
2023/03/14 06:33:13;;;;;;;70.53;3.73;;;;;;;24.07;50.97;97220.38;7304068;19;129672;-41
2023/03/14 06:35:38;;;;;;;80.60;4.07;;;;;;;24.02;50.71;97233.34;7305749;19;129278;-41
2023/03/14 06:38:03;;;;;;;228.63;12.40;;;;;;;23.98;50.99;97226.88;7277367;19;131215;-42
2023/03/14 06:40:29;;;;;;;211.80;11.63;;;;;;;23.75;51.04;97210.06;7273921;19;131865;-38
2023/03/14 06:42:55;;;;;;;190.90;10.55;;;;;;;23.77;51.94;97226.38;7266888;19;131745;-39
2023/03/14 06:45:20;;;;;;;234.83;12.90;;;;;;;23.71;52.08;97245.59;7272072;19;130513;-40
2023/03/14 06:47:45;;;;;;;219.97;12.13;;;;;;;23.61;52.00;97250.50;7273026;19;130259;-39
2023/03/14 06:50:11;;;;;;;233.07;13.03;;;;;;;23.51;52.39;97256.19;7272558;19;130416;-41
2023/03/14 06:52:36;;;;;;;181.57;10.10;;;;;;;23.39;52.85;97247.34;7270477;19;131115;-39
2023/03/14 06:55:02;;;;;;;209.57;11.27;;;;;;;23.29;53.09;97252.22;7271724;19;131254;-40
2023/03/14 06:57:28;;;;;;;247.20;13.35;;;;;;;23.20;53.06;97245.59;7270542;19;130318;-39
2023/03/14 06:59:53;;;;;;;187.17;10.53;;;;;;;23.15;53.27;97237.53;7272731;19;131320;-40
2023/03/14 07:02:18;;;;;;;203.70;11.27;;;;;;;23.06;53.42;97236.16;7262676;19;130382;-39
2023/03/14 07:04:44;;;;;;;228.90;12.70;;;;;;;23.00;53.64;97239.59;7265969;19;130757;-40
2023/03/14 07:07:09;;;;;;;222.27;12.02;;;;;;;22.92;53.98;97245.84;7265699;19;131476;-40
2023/03/14 07:09:35;;;;;;;196.80;10.93;;;;;;;22.91;53.99;97233.75;7273442;19;129938;-41
2023/03/14 07:12:03;;;;;;;192.03;10.70;;;;;;;22.94;53.57;97243.06;7268435;19;130350;-40
2023/03/14 07:14:28;;;;;;;224.90;12.18;;;;;;;22.89;53.53;97221.91;7267844;19;131000;-41
2023/03/14 07:16:53;;;;;;;319.47;18.70;;;;;;;23.07;53.22;97243.00;7264558;19;131362;-39
2023/03/14 07:19:19;;;;;;;230.13;12.65;;;;;;;23.19;52.98;97241.34;7273243;19;130725;-40
2023/03/14 07:21:44;;;;;;;201.53;11.37;;;;;;;23.30;53.01;97242.56;7269546;19;130304;-40
2023/03/14 07:24:09;;;;;;;180.27;9.83;;;;;;;23.40;52.47;97249.00;7273722;19;130295;-38
2023/03/14 07:26:35;;;;;;;215.17;11.60;;;;;;;23.56;52.44;97256.38;7272754;19;131252;-40
2023/03/14 07:29:03;;;;;;;200.52;10.90;;;;;;;23.66;52.57;97259.34;7274463;19;130986;-39
2023/03/14 07:31:28;;;;;;;243.32;13.50;;;;;;;23.67;52.07;97250.47;7271724;19;130676;-42
2023/03/14 07:33:54;;;;;;;275.33;15.50;;;;;;;23.82;51.68;97256.25;7267800;19;131107;-41
2023/03/14 07:36:19;;;;;;;288.73;16.17;;;;;;;23.87;51.39;97243.28;7265232;19;131328;-38
2023/03/14 07:38:44;;;;;;;267.20;15.07;;;;;;;24.04;50.82;97252.31;7264597;19;131565;-40
2023/03/14 07:41:10;;;;;;;270.57;14.83;;;;;;;24.09;50.26;97260.34;7265621;19;130201;-39
2023/03/14 07:43:35;;;;;;;253.32;13.95;;;;;;;24.18;50.82;97260.91;7264237;19;130641;-39
2023/03/14 07:46:01;;;;;;;231.97;13.13;;;;;;;24.01;51.19;97237.00;7270339;19;130197;-38
2023/03/14 07:48:27;;;;;;;258.33;14.43;;;;;;;24.04;50.92;97254.13;7264345;19;131528;-39
2023/03/14 07:50:53;;;;;;;222.73;12.30;;;;;;;23.99;50.64;97254.75;7265737;19;131379;-39
2023/03/14 07:53:20;;;;;;;258.27;14.15;;;;;;;23.93;51.21;97252.94;7263718;19;130473;-39
2023/03/14 07:55:46;;;;;;;225.40;12.60;;;;;;;23.90;51.88;97250.75;7265551;19;131379;-40
2023/03/14 07:58:12;;;;;;;233.90;13.20;;;;;;;23.76;52.09;97248.41;7264981;19;130328;-39
2023/03/14 08:00:37;;;;;;;236.93;13.60;;;;;;;23.66;51.98;97248.06;7264490;19;130521;-40
2023/03/14 08:03:03;;;;;;;245.63;13.73;;;;;;;23.52;51.75;97242.06;7263485;19;131708;-39
2023/03/14 08:05:28;;;;;;;233.90;13.17;;;;;;;23.50;52.31;97246.72;7264480;19;130475;-39
2023/03/14 08:07:53;;;;;;;208.68;11.57;;;;;;;23.40;52.96;97241.13;7263335;19;132886;-38
2023/03/14 08:10:22;;;;;;;266.90;14.90;;;;;;;23.26;52.91;97229.03;7265434;19;130320;-38
2023/03/14 08:12:53;;;;;;;242.25;13.60;;;;;;;23.19;53.07;97238.72;7261412;19;131278;-38
2023/03/14 08:15:19;;;;;;;229.00;12.77;;;;;;;23.12;53.41;97240.59;7259761;19;131246;-40
2023/03/14 08:17:44;;;;;;;160.23;8.67;;;;;;;23.03;53.79;97232.13;7262232;19;131579;-39
2023/03/14 08:20:12;;;;;;;221.25;12.48;;;;;;;22.98;54.00;97233.75;7261636;19;131695;-42
2023/03/14 08:22:38;;;;;;;256.42;14.82;;;;;;;22.83;53.94;97217.47;7259184;19;130613;-40
2023/03/14 08:25:04;;;;;;;298.47;16.50;;;;;;;22.94;53.97;97232.56;7258831;19;131605;-39
2023/03/14 08:27:29;;;;;;;221.27;12.37;;;;;;;22.85;54.29;97229.34;7265712;19;131291;-40
2023/03/14 08:29:55;;;;;;;231.77;13.18;;;;;;;23.02;53.78;97232.34;7268266;19;131264;-39
2023/03/14 08:32:20;;;;;;;260.00;14.30;;;;;;;23.10;53.99;97235.56;7266519;19;129999;-43
2023/03/14 08:34:46;;;;;;;237.75;12.85;;;;;;;23.22;53.44;97226.00;7270694;19;130835;-39
2023/03/14 08:37:11;;;;;;;215.73;11.65;;;;;;;23.33;53.19;97227.22;7266423;19;131555;-39
2023/03/14 08:39:37;;;;;;;240.63;12.90;;;;;;;23.42;53.20;97225.97;7270710;19;130544;-41
2023/03/14 08:42:03;;;;;;;212.17;11.77;;;;;;;23.56;51.95;97221.47;7275120;19;130524;-39
2023/03/14 08:44:28;;;;;;;246.50;13.67;;;;;;;23.67;52.60;97218.19;7269715;19;131355;-38
2023/03/14 08:46:53;;;;;;;207.23;11.50;;;;;;;23.80;52.08;97224.16;7273791;19;130686;-40
2023/03/14 08:49:19;;;;;;;239.43;13.17;;;;;;;23.93;51.56;97229.31;7276381;19;130217;-42
2023/03/14 08:51:44;;;;;;;182.60;10.15;;;;;;;24.01;51.60;97215.19;7275936;19;130612;-38
2023/03/14 08:54:10;;;;;;;246.27;13.60;;;;;;;24.11;51.18;97232.06;7270988;19;131008;-39
2023/03/14 08:56:37;;;;;;;246.15;13.65;;;;;;;24.09;51.24;97223.59;7274163;19;130142;-39
2023/03/14 08:59:03;;;;;;;250.70;14.40;;;;;;;24.08;50.59;97210.69;7274486;19;130563;-43
2023/03/14 09:01:28;;;;;;;214.10;11.77;;;;;;;23.91;50.97;97204.31;7275358;19;130179;-39
2023/03/14 09:03:54;;;;;;;239.98;13.27;;;;;;;23.98;51.53;97226.09;7272514;19;130670;-42
2023/03/14 09:06:19;;;;;;;242.27;13.40;;;;;;;23.93;50.91;97229.31;7273206;19;130999;-40
2023/03/14 09:08:45;;;;;;;213.07;11.52;;;;;;;23.86;51.82;97233.00;7278232;19;129939;-41
2023/03/14 09:11:11;;;;;;;207.23;11.23;;;;;;;23.76;51.65;97227.41;7277479;19;130139;-42
2023/03/14 09:13:36;;;;;;;208.63;11.47;;;;;;;23.70;51.61;97230.88;7272351;19;130389;-40
2023/03/14 09:16:02;;;;;;;196.50;10.57;;;;;;;23.55;52.32;97220.66;7276364;19;130406;-39
2023/03/14 09:18:28;;;;;;;232.70;12.63;;;;;;;23.39;52.70;97210.66;7276736;19;130485;-40
2023/03/14 09:20:55;;;;;;;210.27;11.65;;;;;;;23.38;53.09;97240.50;7277557;19;130301;-40
2023/03/14 09:23:21;;;;;;;215.27;11.85;;;;;;;23.30;52.63;97229.44;7274469;19;130243;-40
2023/03/14 09:25:46;;;;;;;249.25;13.60;;;;;;;23.22;53.52;97231.25;7274498;19;130818;-40
2023/03/14 09:28:12;;;;;;;222.70;12.67;;;;;;;23.04;53.02;97223.25;7275742;19;130677;-39
2023/03/14 09:30:38;;;;;;;232.05;12.90;;;;;;;23.06;53.82;97244.81;7278049;19;129888;-39
2023/03/14 09:33:03;;;;;;;230.18;12.85;;;;;;;22.99;54.15;97236.16;7274011;19;130604;-38
2023/03/14 09:35:29;;;;;;;199.93;11.07;;;;;;;22.93;53.91;97238.81;7274111;19;130793;-39
2023/03/14 09:37:54;;;;;;;245.33;13.63;;;;;;;22.89;54.19;97237.63;7276684;19;129892;-38
2023/03/14 09:40:20;;;;;;;215.03;11.90;;;;;;;22.81;54.54;97249.09;7277161;19;130269;-38
2023/03/14 09:42:51;;;;;;;351.03;20.87;;;;;;;22.79;54.53;97245.88;7272923;19;131108;-38
2023/03/14 09:45:27;;;;;;;298.10;17.95;;;;;;;22.82;54.15;97242.88;7269867;19;130957;-39
2023/03/14 09:47:55;;;;;;;236.40;13.13;;;;;;;22.76;54.78;97235.00;7272442;19;130772;-40
2023/03/14 09:50:21;;;;;;;221.43;12.25;;;;;;;23.03;54.06;97247.03;7276912;19;130410;-38
2023/03/14 09:52:49;;;;;;;245.00;13.40;;;;;;;23.06;54.21;97251.88;7270574;19;132674;-40
2023/03/14 09:55:18;;;;;;;261.30;15.35;;;;;;;23.19;53.25;97246.59;7271598;19;131276;-38
2023/03/14 09:57:47;;;;;;;232.75;12.63;;;;;;;23.35;53.54;97254.03;7274689;19;131058;-38
2023/03/14 10:00:20;;;;;;;218.15;12.05;;;;;;;23.46;52.87;97253.38;7276040;19;131287;-39
2023/03/14 10:02:57;;;;;;;211.60;11.95;;;;;;;23.61;52.49;97251.31;7273032;19;130751;-38
2023/03/14 10:05:25;;;;;;;203.38;11.13;;;;;;;23.74;51.92;97255.69;7271183;19;131426;-42
2023/03/14 10:07:50;;;;;;;207.90;11.50;;;;;;;23.78;51.99;97257.69;7275136;19;130097;-38
2023/03/14 10:10:18;;;;;;;279.93;15.60;;;;;;;23.91;51.76;97247.13;7275585;19;130972;-38
2023/03/14 10:12:46;;;;;;;211.20;11.57;;;;;;;23.72;51.04;97213.91;7273945;19;130950;-38
2023/03/14 10:15:17;;;;;;;249.50;14.30;;;;;;;23.99;50.93;97252.13;7272413;19;129906;-41
2023/03/14 10:17:51;;;;;;;210.43;11.57;;;;;;;23.97;51.06;97256.75;7275277;19;131923;-39
2023/03/14 10:20:34;;;;;;;248.13;13.88;;;;;;;23.88;51.15;97252.75;7274714;19;130529;-37
2023/03/14 10:23:12;;;;;;;265.48;15.07;;;;;;;23.81;51.97;97261.69;7271641;19;130692;-37
2023/03/14 10:25:41;;;;;;;224.82;12.25;;;;;;;23.64;51.66;97248.25;7271512;19;131973;-39
2023/03/14 10:28:26;;;;;;;232.20;12.70;;;;;;;23.63;51.80;97254.53;7274653;19;130362;-37
2023/03/14 10:30:52;;;;;;;217.15;12.25;;;;;;;23.58;52.10;97241.25;7274660;19;130383;-40
2023/03/14 10:33:17;;;;;;;210.30;11.63;;;;;;;23.37;52.87;97233.66;7272831;19;129760;-40
2023/03/14 10:35:43;;;;;;;185.53;10.23;;;;;;;23.39;52.98;97257.84;7268150;19;130371;-40
2023/03/14 10:38:14;;;;;;;280.80;15.63;;;;;;;23.30;53.39;97259.09;7272886;19;130288;-38
2023/03/14 10:40:46;;;;;;;215.68;12.32;;;;;;;23.22;53.38;97246.97;7268072;19;130511;-38
2023/03/14 10:43:19;;;;;;;226.57;12.57;;;;;;;23.17;53.84;97253.88;7271926;19;130268;-38
2023/03/14 10:45:57;;;;;;;201.00;11.32;;;;;;;23.11;53.83;97249.44;7267965;19;130558;-39
2023/03/14 10:48:30;;;;;;;237.57;13.13;;;;;;;23.00;54.13;97250.09;7273638;19;129483;-38
2023/03/14 10:51:03;;;;;;;209.13;11.48;;;;;;;22.87;54.15;97231.78;7272261;19;130942;-38
2023/03/14 10:53:38;;;;;;;216.88;11.88;;;;;;;22.86;54.68;97240.63;7270965;19;130492;-39
2023/03/14 10:56:04;;;;;;;255.18;14.55;;;;;;;22.78;54.18;97246.09;7268987;19;131182;-40
2023/03/14 10:58:37;;;;;;;218.93;12.18;;;;;;;22.79;55.08;97250.31;7273895;19;130868;-38
2023/03/14 11:01:17;;;;;;;220.32;12.18;;;;;;;22.84;54.60;97253.16;7275963;19;130424;-39
2023/03/14 11:03:52;;;;;;;202.27;11.10;;;;;;;22.87;54.13;97239.63;7272257;19;130857;-39
2023/03/14 11:06:53;;;;;;;224.63;12.32;;;;;;;22.99;54.43;97240.63;7269765;19;130895;-39
2023/03/14 11:09:41;;;;;;;222.25;12.30;;;;;;;23.11;53.80;97250.25;7275325;19;129713;-38